createdAt,value
2018-10-03T00:01:12.352Z,2.30
2018-10-03T00:03:42.836Z,1.87
2018-10-03T00:06:13.068Z,2.10
2018-10-03T00:08:43.301Z,2.30
2018-10-03T00:11:14.228Z,2.00
2018-10-03T00:13:44.735Z,1.87
2018-10-03T00:16:15.299Z,1.70
2018-10-03T00:18:46.422Z,2.50
2018-10-03T00:21:16.966Z,2.10
2018-10-03T00:23:47.784Z,2.13
2018-10-03T00:26:18.333Z,2.30
2018-10-03T00:28:48.614Z,2.60
2018-10-03T00:31:19.165Z,1.67
2018-10-03T00:33:49.742Z,2.03
2018-10-03T00:36:19.978Z,2.40
2018-10-03T00:38:52.314Z,2.40
2018-10-03T00:41:22.824Z,2.00
2018-10-03T00:43:53.040Z,1.90
2018-10-03T00:46:23.799Z,3.00
2018-10-03T00:48:54.308Z,2.43
2018-10-03T00:51:24.541Z,3.30
2018-10-03T00:53:56.000Z,3.20
2018-10-03T00:56:26.540Z,2.60
2018-10-03T00:58:57.193Z,3.33
2018-10-03T01:01:28.546Z,2.43
2018-10-03T01:03:58.995Z,2.90
2018-10-03T01:06:29.556Z,3.33
2018-10-03T01:09:01.337Z,3.10
2018-10-03T01:11:31.637Z,3.07
2018-10-03T01:14:02.167Z,2.80
2018-10-03T01:16:32.744Z,3.67
2018-10-03T01:19:03.281Z,3.67
2018-10-03T01:21:33.780Z,2.80
2018-10-03T01:24:04.302Z,3.60
2018-10-03T01:26:34.891Z,3.20
2018-10-03T01:29:05.490Z,3.30
2018-10-03T01:31:36.124Z,3.50
2018-10-03T01:34:07.053Z,2.93
2018-10-03T01:36:37.778Z,3.43
2018-10-03T01:39:09.542Z,3.90
2018-10-03T01:41:40.641Z,3.27
2018-10-03T01:44:11.147Z,3.33
2018-10-03T01:46:41.727Z,4.00
2018-10-03T01:49:12.216Z,3.50
2018-10-03T01:51:42.797Z,3.50
2018-10-03T01:54:13.388Z,4.27
2018-10-03T01:56:43.912Z,3.73
2018-10-03T01:59:14.438Z,3.73
2018-10-03T02:01:45.705Z,3.80
2018-10-03T02:04:16.364Z,3.47
2018-10-03T02:06:46.906Z,3.20
2018-10-03T02:09:17.416Z,3.10
2018-10-03T02:11:47.659Z,3.60
2018-10-03T02:14:17.900Z,3.70
2018-10-03T02:16:48.407Z,3.83
2018-10-03T02:19:19.041Z,3.40
2018-10-03T02:21:49.777Z,3.40
2018-10-03T02:24:20.650Z,3.80
2018-10-03T02:26:51.204Z,4.57
2018-10-03T02:29:21.736Z,3.53
2018-10-03T02:31:52.230Z,3.47
2018-10-03T02:34:22.814Z,3.73
2018-10-03T02:36:53.548Z,4.23
2018-10-03T02:39:24.133Z,3.57
2018-10-03T02:41:54.619Z,3.50
2018-10-03T02:44:25.770Z,3.53
2018-10-03T02:46:56.501Z,3.43
2018-10-03T02:49:27.000Z,3.20
2018-10-03T02:51:57.699Z,3.33
2018-10-03T02:54:28.145Z,3.63
2018-10-03T02:56:58.737Z,3.40
2018-10-03T02:59:29.426Z,3.53
2018-10-03T03:02:00.090Z,3.50
2018-10-03T03:04:30.325Z,3.10
2018-10-03T03:07:01.139Z,3.30
2018-10-03T03:09:31.682Z,3.60
2018-10-03T03:12:02.170Z,4.10
2018-10-03T03:14:32.436Z,4.17
2018-10-03T03:17:03.094Z,4.30
2018-10-03T03:19:33.612Z,3.50
2018-10-03T03:22:04.137Z,4.27
2018-10-03T03:24:34.368Z,4.20
2018-10-03T03:27:05.342Z,4.20
2018-10-03T03:29:35.637Z,4.80
2018-10-03T03:32:06.141Z,5.30
2018-10-03T03:34:36.692Z,4.90
2018-10-03T03:37:07.509Z,5.80
2018-10-03T03:39:38.934Z,4.13
2018-10-03T03:42:09.232Z,5.70
2018-10-03T03:44:40.024Z,5.60
2018-10-03T03:47:10.310Z,5.20
2018-10-03T03:49:40.855Z,5.50
2018-10-03T03:52:11.382Z,5.33
2018-10-03T03:54:41.723Z,5.47
2018-10-03T03:57:12.380Z,6.20
2018-10-03T03:59:42.949Z,6.00
2018-10-03T04:02:13.208Z,6.53
2018-10-03T04:04:43.509Z,6.40
2018-10-03T04:07:14.139Z,6.00
2018-10-03T04:09:44.413Z,5.50
2018-10-03T04:12:14.942Z,6.60
2018-10-03T04:14:45.508Z,5.80
2018-10-03T04:17:16.038Z,5.83
2018-10-03T04:19:46.477Z,5.27
2018-10-03T04:22:17.068Z,5.00
2018-10-03T04:24:47.857Z,5.60
2018-10-03T04:27:18.428Z,5.53
2018-10-03T04:29:48.960Z,5.27
2018-10-03T04:32:19.810Z,4.80
2018-10-03T04:34:50.017Z,5.13
2018-10-03T04:37:20.520Z,5.43
2018-10-03T04:39:51.028Z,5.80
2018-10-03T04:42:21.381Z,4.97
2018-10-03T04:44:52.112Z,5.73
2018-10-03T04:47:22.692Z,5.73
2018-10-03T04:49:53.222Z,5.30
2018-10-03T04:52:23.769Z,5.23
2018-10-03T04:54:54.289Z,5.43
2018-10-03T04:57:25.079Z,4.87
2018-10-03T04:59:55.928Z,4.70
2018-10-03T05:02:26.453Z,5.20
2018-10-03T05:04:57.000Z,5.00
2018-10-03T05:07:27.817Z,4.70
2018-10-03T05:09:58.664Z,4.77
2018-10-03T05:12:29.193Z,5.57
2018-10-03T05:14:59.712Z,4.33
2018-10-03T05:17:30.243Z,4.70
2018-10-03T05:20:00.518Z,5.23
2018-10-03T05:22:31.118Z,4.13
2018-10-03T05:25:01.553Z,4.80
2018-10-03T05:27:31.888Z,3.73
2018-10-03T05:30:02.420Z,5.00
2018-10-03T05:32:32.799Z,4.30
2018-10-03T05:35:03.316Z,4.50
2018-10-03T05:37:33.852Z,4.47
2018-10-03T05:40:04.406Z,4.73
2018-10-03T05:42:35.297Z,5.00
2018-10-03T05:45:05.851Z,4.93
2018-10-03T05:47:36.879Z,5.33
2018-10-03T05:50:07.780Z,5.47
2018-10-03T05:52:38.521Z,5.10
2018-10-03T05:55:09.049Z,4.80
2018-10-03T05:57:39.917Z,5.23
2018-10-03T06:00:10.746Z,4.27
2018-10-03T06:02:43.049Z,3.80
2018-10-03T06:05:13.512Z,4.30
2018-10-03T06:07:44.112Z,4.30
2018-10-03T06:10:14.365Z,4.07
2018-10-03T06:12:44.924Z,4.73
2018-10-03T06:15:15.414Z,4.67
2018-10-03T06:17:46.037Z,4.97
2018-10-03T06:20:16.646Z,4.33
2018-10-03T06:22:47.404Z,4.87
2018-10-03T06:25:17.747Z,4.93
2018-10-03T06:27:48.424Z,4.00
2018-10-03T06:30:19.160Z,4.20
2018-10-03T06:32:49.563Z,4.30
2018-10-03T06:35:20.263Z,3.97
2018-10-03T06:37:51.201Z,3.73
2018-10-03T06:40:21.752Z,3.80
2018-10-03T06:42:52.196Z,4.33
2018-10-03T06:45:22.768Z,3.40
2018-10-03T06:47:53.280Z,3.13
2018-10-03T06:50:24.817Z,3.07
2018-10-03T06:52:55.241Z,3.10
2018-10-03T06:55:25.844Z,3.60
2018-10-03T06:57:56.375Z,2.93
2018-10-03T07:00:27.569Z,2.57
2018-10-03T07:02:58.151Z,2.70
2018-10-03T07:05:28.387Z,2.70
2018-10-03T07:07:59.088Z,2.93
2018-10-03T07:10:29.658Z,2.60
2018-10-03T07:13:00.458Z,2.63
2018-10-03T07:15:31.634Z,2.90
2018-10-03T07:18:02.161Z,2.60
2018-10-03T07:20:33.094Z,2.90
2018-10-03T07:23:03.804Z,2.90
2018-10-03T07:25:34.364Z,2.50
2018-10-03T07:28:04.923Z,2.87
2018-10-03T07:30:35.448Z,3.23
2018-10-03T07:33:06.238Z,2.20
2018-10-03T07:35:37.005Z,2.80
2018-10-03T07:38:07.867Z,2.17
2018-10-03T07:40:38.885Z,2.73
2018-10-03T07:43:09.410Z,2.80
2018-10-03T07:45:39.836Z,2.97
2018-10-03T07:48:10.445Z,2.57
2018-10-03T07:50:40.884Z,3.40
2018-10-03T07:53:11.125Z,3.10
2018-10-03T07:55:41.378Z,3.60
2018-10-03T07:58:12.168Z,3.33
2018-10-03T08:00:42.921Z,4.30
2018-10-03T08:03:14.935Z,3.60
2018-10-03T08:05:45.220Z,4.13
2018-10-03T08:08:15.435Z,4.00
2018-10-03T08:10:45.980Z,3.00
2018-10-03T08:13:16.193Z,3.33
2018-10-03T08:15:46.779Z,2.80
2018-10-03T08:18:17.333Z,2.47
2018-10-03T08:20:47.620Z,2.57
2018-10-03T08:23:18.597Z,2.50
2018-10-03T08:25:48.861Z,1.83
2018-10-03T08:28:19.426Z,1.83
2018-10-03T08:30:49.798Z,2.23
2018-10-03T08:33:20.533Z,1.77
2018-10-03T08:35:51.330Z,2.67
2018-10-03T08:38:21.581Z,2.40
2018-10-03T08:40:52.698Z,2.20
2018-10-03T08:43:23.873Z,4.37
2018-10-03T08:45:54.528Z,3.37
2018-10-03T08:48:25.227Z,3.83
2018-10-03T08:50:56.692Z,3.80
2018-10-03T08:53:27.495Z,4.23
2018-10-03T08:55:58.019Z,4.23
2018-10-03T08:58:28.795Z,3.70
2018-10-03T09:00:59.904Z,3.97
2018-10-03T09:03:30.149Z,4.53
2018-10-03T09:06:00.649Z,3.93
2018-10-03T09:08:31.736Z,3.50
2018-10-03T09:11:02.285Z,4.90
2018-10-03T09:13:32.720Z,3.93
2018-10-03T09:16:03.272Z,3.80
2018-10-03T09:18:34.034Z,3.63
2018-10-03T09:21:07.161Z,4.43
2018-10-03T09:23:38.906Z,3.73
2018-10-03T09:26:09.457Z,3.70
2018-10-03T09:28:43.615Z,4.80
2018-10-03T09:31:14.936Z,3.63
2018-10-03T09:33:45.520Z,3.43
2018-10-03T09:36:16.501Z,3.97
2018-10-03T09:38:46.899Z,3.70
2018-10-03T09:41:17.416Z,3.70
2018-10-03T09:43:47.980Z,3.43
2018-10-03T09:46:19.358Z,3.40
2018-10-03T09:48:49.900Z,3.43
2018-10-03T09:51:20.600Z,3.33
2018-10-03T09:53:51.097Z,3.47
2018-10-03T09:56:21.647Z,3.60
2018-10-03T09:58:51.890Z,3.40
2018-10-03T10:01:29.985Z,3.30
2018-10-03T10:04:02.085Z,3.20
2018-10-03T10:06:33.418Z,3.10
2018-10-03T10:09:05.526Z,3.47
2018-10-03T10:11:36.181Z,3.10
2018-10-03T10:14:08.752Z,3.50
2018-10-03T10:16:40.442Z,4.20
2018-10-03T10:19:10.702Z,2.93
2018-10-03T10:21:40.965Z,3.10
2018-10-03T10:24:12.117Z,2.80
2018-10-03T10:26:42.319Z,3.10
2018-10-03T10:29:12.561Z,3.20
2018-10-03T10:31:43.354Z,2.83
2018-10-03T10:34:13.840Z,3.00
2018-10-03T10:36:44.343Z,2.73
2018-10-03T10:39:14.579Z,2.60
2018-10-03T10:41:45.163Z,3.30
2018-10-03T10:44:15.968Z,3.20
2018-10-03T10:46:46.294Z,3.73
2018-10-03T10:49:16.993Z,3.17
2018-10-03T10:51:47.585Z,3.40
2018-10-03T10:54:18.261Z,3.50
2018-10-03T10:56:48.765Z,4.03
2018-10-03T10:59:19.481Z,3.50
2018-10-03T11:01:50.348Z,3.20
2018-10-03T11:04:20.996Z,4.23
2018-10-03T11:06:52.213Z,4.30
2018-10-03T11:09:23.216Z,4.17
2018-10-03T11:11:54.017Z,3.60
2018-10-03T11:14:24.572Z,3.23
2018-10-03T11:16:55.165Z,3.67
2018-10-03T11:19:25.653Z,2.93
2018-10-03T11:21:56.184Z,3.43
2018-10-03T11:24:27.037Z,3.57
2018-10-03T11:26:57.461Z,2.67
2018-10-03T11:29:28.311Z,2.37
2018-10-03T11:31:59.196Z,2.27
2018-10-03T11:34:30.069Z,2.60
2018-10-03T11:37:01.136Z,2.20
2018-10-03T11:39:31.981Z,2.27
2018-10-03T11:42:02.506Z,2.63
2018-10-03T11:44:32.885Z,2.97
2018-10-03T11:47:03.253Z,2.20
2018-10-03T11:49:33.775Z,2.20
2018-10-03T11:52:04.021Z,2.13
2018-10-03T11:54:34.839Z,2.40
2018-10-03T11:57:05.122Z,2.90
2018-10-03T11:59:35.944Z,3.10
2018-10-03T12:02:06.339Z,2.53
2018-10-03T12:04:36.890Z,2.37
2018-10-03T12:07:07.126Z,2.00
2018-10-03T12:09:38.360Z,1.80
2018-10-03T12:12:08.744Z,2.27
2018-10-03T12:14:40.301Z,1.70
2018-10-03T12:17:10.557Z,2.17
2018-10-03T12:19:40.788Z,1.70
2018-10-03T12:22:11.075Z,1.47
2018-10-03T12:24:41.842Z,1.93
2018-10-03T12:27:12.347Z,1.87
2018-10-03T12:29:42.883Z,1.87
2018-10-03T12:32:13.422Z,2.20
2018-10-03T12:34:44.214Z,1.93
2018-10-03T12:37:14.760Z,1.60
2018-10-03T12:39:45.814Z,1.53
2018-10-03T12:42:16.641Z,1.13
2018-10-03T12:44:49.751Z,1.30
2018-10-03T12:47:20.285Z,1.60
2018-10-03T12:49:50.552Z,1.40
2018-10-03T12:52:21.795Z,1.00
2018-10-03T12:54:52.488Z,1.37
2018-10-03T12:57:22.773Z,1.47
2018-10-03T12:59:53.333Z,1.43
2018-10-03T13:02:23.593Z,1.63
2018-10-03T13:04:53.985Z,1.43
2018-10-03T13:07:24.243Z,1.30
2018-10-03T13:09:54.937Z,1.40
2018-10-03T13:12:25.549Z,1.70
2018-10-03T13:14:55.810Z,1.20
2018-10-03T13:17:26.941Z,1.30
2018-10-03T13:19:57.484Z,1.20
2018-10-03T13:22:27.996Z,1.17
2018-10-03T13:24:58.497Z,1.40
2018-10-03T13:27:28.973Z,1.10
2018-10-03T13:29:59.500Z,1.20
2018-10-03T13:32:29.996Z,1.30
2018-10-03T13:35:00.504Z,1.07
2018-10-03T13:37:31.009Z,0.90
2018-10-03T13:40:02.390Z,1.20
2018-10-03T13:42:33.117Z,1.10
2018-10-03T13:45:03.630Z,1.30
2018-10-03T13:47:34.173Z,1.10
2018-10-03T13:50:05.052Z,1.20
2018-10-03T13:52:36.161Z,0.80
2018-10-03T13:55:06.709Z,1.80
2018-10-03T13:57:37.202Z,1.20
2018-10-03T14:00:08.670Z,0.80
2018-10-03T14:02:41.256Z,0.93
2018-10-03T14:05:11.641Z,0.77
2018-10-03T14:07:42.109Z,1.10
2018-10-03T14:10:13.023Z,0.70
2018-10-03T14:12:43.293Z,0.70
2018-10-03T14:15:13.538Z,1.10
2018-10-03T14:17:44.495Z,1.07
2018-10-03T14:20:15.262Z,1.30
2018-10-03T14:22:45.518Z,0.90
2018-10-03T14:25:15.748Z,1.40
2018-10-03T14:27:46.280Z,1.50
2018-10-03T14:30:16.772Z,1.70
2018-10-03T14:32:47.360Z,1.47
2018-10-03T14:35:18.583Z,1.30
2018-10-03T14:37:49.093Z,1.40
2018-10-03T14:40:19.942Z,1.40
2018-10-03T14:42:50.468Z,1.50
2018-10-03T14:45:21.142Z,1.50
2018-10-03T14:47:51.643Z,1.50
2018-10-03T14:50:22.177Z,1.30
2018-10-03T14:52:53.309Z,1.60
2018-10-03T14:55:23.823Z,1.30
2018-10-03T14:57:54.386Z,1.40
2018-10-03T15:00:25.395Z,1.30
2018-10-03T15:02:55.954Z,1.20
2018-10-03T15:05:26.492Z,1.20
2018-10-03T15:07:56.952Z,1.30
2018-10-03T15:10:27.526Z,1.40
2018-10-03T15:12:58.166Z,1.23
2018-10-03T15:15:28.825Z,1.53
2018-10-03T15:17:59.109Z,1.27
2018-10-03T15:20:29.574Z,1.33
2018-10-03T15:22:59.898Z,1.00
2018-10-03T15:25:30.402Z,0.80
2018-10-03T15:28:01.228Z,1.80
2018-10-03T15:30:31.486Z,1.20
2018-10-03T15:33:01.977Z,1.30
2018-10-03T15:35:32.326Z,1.80
2018-10-03T15:38:02.756Z,1.20
2018-10-03T15:40:32.990Z,1.53
2018-10-03T15:43:03.541Z,1.70
2018-10-03T15:45:34.050Z,1.40
2018-10-03T15:48:04.610Z,1.43
2018-10-03T15:50:35.334Z,1.50
2018-10-03T15:53:06.004Z,1.70
2018-10-03T15:55:36.400Z,1.50
2018-10-03T15:58:07.018Z,1.37
2018-10-03T16:00:37.366Z,1.30
2018-10-03T16:03:08.061Z,1.70
2018-10-03T16:05:38.588Z,2.40
2018-10-03T16:08:09.158Z,1.97
2018-10-03T16:10:40.255Z,2.00
2018-10-03T16:13:10.516Z,1.63
2018-10-03T16:15:40.836Z,1.60
2018-10-03T16:18:11.075Z,2.10
2018-10-03T16:20:41.343Z,2.03
2018-10-03T16:23:11.665Z,1.87
2018-10-03T16:25:42.661Z,2.27
2018-10-03T16:28:13.713Z,1.97
2018-10-03T16:30:44.538Z,1.90
2018-10-03T16:33:24.065Z,2.03
2018-10-03T16:36:02.793Z,1.27
2018-10-03T16:38:34.841Z,1.97
2018-10-03T16:41:05.700Z,1.83
2018-10-03T16:43:35.937Z,1.90
2018-10-03T16:46:07.017Z,1.90
2018-10-03T16:48:37.658Z,1.70
2018-10-03T16:51:07.914Z,2.37
2018-10-03T16:53:38.419Z,2.00
2018-10-03T16:56:09.003Z,2.13
2018-10-03T16:58:39.834Z,2.00
2018-10-03T17:01:10.445Z,1.87
2018-10-03T17:03:40.685Z,2.40
2018-10-03T17:06:11.268Z,2.27
2018-10-03T17:08:41.811Z,2.63
2018-10-03T17:11:12.082Z,2.40
2018-10-03T17:13:53.288Z,2.10
2018-10-03T17:16:23.538Z,3.07
2018-10-03T17:18:54.054Z,2.00
2018-10-03T17:21:24.568Z,1.80
2018-10-03T17:23:55.121Z,1.70
2018-10-03T17:26:25.986Z,1.97
2018-10-03T17:28:56.524Z,1.90
2018-10-03T17:31:27.007Z,2.40
2018-10-03T17:33:57.552Z,2.20
2018-10-03T17:36:28.225Z,2.33
2018-10-03T17:38:58.909Z,1.70
2018-10-03T17:41:29.454Z,1.97
2018-10-03T17:44:00.136Z,2.17
2018-10-03T17:46:30.572Z,1.43
2018-10-03T17:49:00.902Z,2.43
2018-10-03T17:51:31.329Z,2.67
2018-10-03T17:54:02.112Z,2.07
2018-10-03T17:56:33.201Z,2.43
2018-10-03T17:59:04.155Z,1.90
2018-10-03T18:01:36.432Z,2.30
2018-10-03T18:04:07.348Z,2.47
2018-10-03T18:06:38.252Z,2.60
2018-10-03T18:09:10.994Z,2.50
2018-10-03T18:11:41.678Z,2.40
2018-10-03T18:14:12.176Z,3.40
2018-10-03T18:16:42.672Z,2.53
2018-10-03T18:19:12.993Z,3.10
2018-10-03T18:21:43.237Z,2.60
2018-10-03T18:24:13.662Z,2.40
2018-10-03T18:26:44.209Z,2.50
2018-10-03T18:29:14.749Z,2.83
2018-10-03T18:31:45.839Z,2.83
2018-10-03T18:34:16.352Z,2.17
2018-10-03T18:36:46.690Z,2.77
2018-10-03T18:39:17.495Z,3.17
2018-10-03T18:41:48.162Z,3.13
2018-10-03T18:44:19.292Z,3.60
2018-10-03T18:46:50.173Z,2.67
2018-10-03T18:49:21.126Z,2.60
2018-10-03T18:51:51.715Z,2.53
2018-10-03T18:54:22.490Z,2.37
2018-10-03T18:56:53.319Z,3.17
2018-10-03T18:59:24.638Z,3.33
2018-10-03T19:01:55.337Z,3.63
2018-10-03T19:04:26.675Z,3.20
2018-10-03T19:06:57.809Z,2.57
2018-10-03T19:09:28.522Z,3.30
2018-10-03T19:12:00.509Z,3.20
2018-10-03T19:14:31.062Z,3.03
2018-10-03T19:17:01.853Z,3.40
2018-10-03T19:19:32.388Z,2.80
2018-10-03T19:22:03.072Z,2.70
2018-10-03T19:24:34.437Z,3.00
2018-10-03T19:27:05.452Z,3.30
2018-10-03T19:29:36.304Z,3.20
2018-10-03T19:32:06.904Z,4.30
2018-10-03T19:34:37.464Z,4.80
2018-10-03T19:37:08.264Z,8.13
2018-10-03T19:39:38.855Z,3.60
2018-10-03T19:42:09.250Z,3.30
2018-10-03T19:44:40.483Z,3.40
2018-10-03T19:47:11.465Z,3.60
2018-10-03T19:49:42.045Z,4.63
2018-10-03T19:52:13.821Z,4.70
2018-10-03T19:54:44.369Z,3.97
2018-10-03T19:57:15.006Z,3.17
2018-10-03T19:59:45.219Z,2.73
2018-10-03T20:02:15.439Z,3.40
2018-10-03T20:04:46.250Z,3.23
2018-10-03T20:07:18.532Z,3.93
2018-10-03T20:09:48.872Z,3.13
2018-10-03T20:12:19.109Z,3.03
2018-10-03T20:14:49.621Z,3.57
2018-10-03T20:17:19.893Z,3.10
2018-10-03T20:19:50.412Z,3.20
2018-10-03T20:22:22.081Z,2.80
2018-10-03T20:24:53.042Z,3.20
2018-10-03T20:27:24.084Z,4.03
2018-10-03T20:29:54.495Z,2.77
2018-10-03T20:32:25.118Z,2.80
2018-10-03T20:34:55.846Z,3.30
2018-10-03T20:37:26.100Z,3.10
2018-10-03T20:39:56.726Z,4.40
2018-10-03T20:42:27.259Z,2.80
2018-10-03T20:44:57.851Z,3.30
2018-10-03T20:47:28.655Z,2.60
2018-10-03T20:49:59.164Z,2.87
2018-10-03T20:52:30.058Z,2.87
2018-10-03T20:55:00.851Z,2.90
2018-10-03T20:57:31.695Z,3.03
2018-10-03T21:00:02.072Z,3.50
2018-10-03T21:02:32.396Z,3.27
2018-10-03T21:05:02.925Z,4.20
2018-10-03T21:07:34.755Z,4.57
2018-10-03T21:10:05.392Z,5.10
2018-10-03T21:12:36.388Z,4.93
2018-10-03T21:15:07.024Z,4.63
2018-10-03T21:17:37.692Z,4.13
2018-10-03T21:20:08.237Z,5.30
2018-10-03T21:22:38.938Z,3.00
2018-10-03T21:25:09.182Z,3.43
2018-10-03T21:27:39.578Z,3.60
2018-10-03T21:30:10.448Z,3.80
2018-10-03T21:32:40.719Z,3.63
2018-10-03T21:35:11.144Z,3.40
2018-10-03T21:37:41.982Z,3.83
2018-10-03T21:40:12.516Z,3.37
2018-10-03T21:42:43.044Z,3.90
2018-10-03T21:45:13.725Z,4.00
2018-10-03T21:47:44.909Z,3.50
2018-10-03T21:50:17.970Z,3.90
2018-10-03T21:52:49.533Z,4.00
2018-10-03T21:55:22.226Z,4.10
2018-10-03T21:57:53.913Z,3.90
2018-10-03T22:00:30.233Z,3.30
2018-10-03T22:03:05.216Z,3.87
2018-10-03T22:05:35.671Z,4.30
2018-10-03T22:08:06.670Z,4.50
2018-10-03T22:10:36.933Z,4.83
2018-10-03T22:13:07.450Z,3.27
2018-10-03T22:15:38.044Z,4.70
2018-10-03T22:18:08.554Z,4.27
2018-10-03T22:20:40.173Z,3.70
2018-10-03T22:23:10.796Z,3.80
2018-10-03T22:25:41.470Z,4.17
2018-10-03T22:28:12.429Z,3.90
2018-10-03T22:30:42.928Z,3.90
2018-10-03T22:33:19.135Z,4.30
2018-10-03T22:35:50.411Z,3.93
2018-10-03T22:38:20.789Z,4.10
2018-10-03T22:40:51.350Z,3.40
2018-10-03T22:43:21.860Z,3.90
2018-10-03T22:45:52.476Z,3.97
2018-10-03T22:48:23.054Z,4.20
2018-10-03T22:50:53.396Z,3.63
2018-10-03T22:53:23.929Z,4.70
2018-10-03T22:55:54.830Z,3.80
2018-10-03T22:58:25.915Z,4.30
2018-10-03T23:00:56.724Z,3.50
2018-10-03T23:03:27.332Z,4.33
2018-10-03T23:05:57.971Z,3.80
2018-10-03T23:08:28.678Z,3.90
2018-10-03T23:10:58.935Z,4.97
2018-10-03T23:13:29.465Z,4.00
2018-10-03T23:16:00.351Z,4.10
2018-10-03T23:18:30.881Z,4.13
2018-10-03T23:21:01.611Z,3.70
2018-10-03T23:23:32.012Z,3.67
2018-10-03T23:26:02.259Z,4.57
2018-10-03T23:28:33.321Z,4.00
2018-10-03T23:31:04.152Z,4.03
2018-10-03T23:33:34.902Z,4.00
2018-10-03T23:36:06.059Z,4.40
2018-10-03T23:38:36.595Z,3.57
2018-10-03T23:41:07.366Z,3.80
2018-10-03T23:43:42.100Z,3.33
2018-10-03T23:46:12.516Z,3.20
2018-10-03T23:48:43.148Z,3.60
2018-10-03T23:51:13.677Z,3.60
2018-10-03T23:53:44.393Z,3.30
2018-10-03T23:56:16.437Z,3.30
2018-10-03T23:58:46.983Z,3.50
